createdAt,value
2023-05-11T00:00:11.413Z,4.65
2023-05-11T00:02:58.908Z,4.55
2023-05-11T00:05:26.259Z,4.00
2023-05-11T00:07:53.713Z,3.88
2023-05-11T00:10:21.081Z,3.83
2023-05-11T00:12:48.677Z,4.53
2023-05-11T00:15:15.991Z,4.35
2023-05-11T00:17:43.603Z,4.65
2023-05-11T00:20:11.460Z,6.13
2023-05-11T00:22:39.437Z,5.00
2023-05-11T00:25:07.359Z,4.53
2023-05-11T00:27:34.990Z,5.18
2023-05-11T00:30:02.266Z,5.38
2023-05-11T00:32:30.087Z,4.90
2023-05-11T00:34:57.441Z,4.72
2023-05-11T00:37:26.129Z,4.13
2023-05-11T00:39:53.982Z,3.88
2023-05-11T00:42:21.576Z,3.88
2023-05-11T00:44:48.795Z,3.42
2023-05-11T00:47:16.382Z,4.07
2023-05-11T00:49:44.128Z,3.90
2023-05-11T00:52:11.686Z,2.80
2023-05-11T00:54:40.617Z,3.53
2023-05-11T00:57:08.669Z,3.38
2023-05-11T00:59:36.580Z,3.53
2023-05-11T01:02:05.173Z,3.63
2023-05-11T01:04:33.935Z,3.47
2023-05-11T01:07:12.349Z,3.30
2023-05-11T01:10:01.404Z,3.13
2023-05-11T01:12:56.919Z,3.42
2023-05-11T01:15:37.323Z,3.25
2023-05-11T01:18:19.963Z,2.90
2023-05-11T01:20:50.162Z,3.13
2023-05-11T01:23:57.895Z,3.03
2023-05-11T01:26:28.427Z,4.25
2023-05-11T01:29:19.573Z,3.35
2023-05-11T01:31:48.415Z,3.65
2023-05-11T01:34:23.528Z,3.35
2023-05-11T01:37:16.363Z,2.85
2023-05-11T01:39:51.893Z,3.38
2023-05-11T01:42:22.578Z,3.15
2023-05-11T01:44:53.003Z,3.42
2023-05-11T01:47:23.779Z,3.78
2023-05-11T01:49:54.050Z,3.65
2023-05-11T01:52:25.239Z,3.33
2023-05-11T01:54:56.281Z,2.90
2023-05-11T01:57:25.100Z,2.80
2023-05-11T01:59:55.936Z,3.20
2023-05-11T02:02:25.529Z,3.17
2023-05-11T02:04:54.437Z,3.08
2023-05-11T02:07:24.407Z,3.47
2023-05-11T02:09:53.429Z,3.45
2023-05-11T02:12:21.362Z,3.08
2023-05-11T02:14:51.776Z,3.60
2023-05-11T02:17:22.398Z,3.85
2023-05-11T02:19:51.273Z,3.33
2023-05-11T02:22:20.674Z,3.50
2023-05-11T02:24:49.258Z,3.40
2023-05-11T02:27:16.525Z,3.50
2023-05-11T02:29:44.266Z,3.28
2023-05-11T02:32:15.933Z,3.83
2023-05-11T02:34:49.417Z,3.58
2023-05-11T02:37:22.753Z,3.35
2023-05-11T02:39:59.442Z,3.28
2023-05-11T02:42:28.999Z,2.80
2023-05-11T02:45:11.664Z,3.95
2023-05-11T02:47:47.479Z,3.58
2023-05-11T02:50:25.004Z,3.28
2023-05-11T02:52:59.586Z,3.38
2023-05-11T02:55:29.179Z,2.97
2023-05-11T02:57:57.015Z,3.33
2023-05-11T03:00:25.547Z,3.10
2023-05-11T03:02:53.029Z,4.00
2023-05-11T03:05:22.683Z,3.78
2023-05-11T03:07:50.826Z,3.47
2023-05-11T03:10:18.727Z,3.55
2023-05-11T03:12:47.184Z,3.75
2023-05-11T03:15:16.583Z,3.50
2023-05-11T03:17:47.483Z,3.58
2023-05-11T03:20:20.950Z,3.38
2023-05-11T03:22:49.596Z,3.80
2023-05-11T03:25:18.567Z,3.22
2023-05-11T03:27:47.079Z,4.03
2023-05-11T03:30:17.488Z,4.72
2023-05-11T03:32:49.755Z,2.97
2023-05-11T03:35:17.628Z,3.30
2023-05-11T03:37:45.928Z,3.15
2023-05-11T03:40:15.882Z,3.40
2023-05-11T03:42:55.362Z,3.22
2023-05-11T03:45:26.137Z,3.17
2023-05-11T03:47:55.567Z,3.15
2023-05-11T03:50:23.098Z,3.53
2023-05-11T03:52:52.220Z,3.53
2023-05-11T03:55:20.194Z,3.13
2023-05-11T03:57:48.257Z,3.05
2023-05-11T04:00:16.784Z,3.22
2023-05-11T04:02:46.004Z,3.92
2023-05-11T04:05:13.715Z,3.10
2023-05-11T04:07:43.562Z,3.00
2023-05-11T04:10:11.263Z,3.20
2023-05-11T04:12:38.735Z,3.22
2023-05-11T04:15:06.807Z,3.08
2023-05-11T04:17:36.486Z,3.22
2023-05-11T04:20:07.113Z,3.67
2023-05-11T04:22:34.723Z,4.20
2023-05-11T04:25:03.427Z,2.90
2023-05-11T04:27:34.679Z,3.10
2023-05-11T04:30:05.764Z,3.38
2023-05-11T04:32:33.909Z,3.10
2023-05-11T04:35:01.200Z,3.00
2023-05-11T04:37:32.391Z,3.15
2023-05-11T04:40:00.675Z,3.35
2023-05-11T04:42:29.942Z,3.00
2023-05-11T04:44:57.575Z,2.47
2023-05-11T04:47:25.222Z,2.70
2023-05-11T04:49:52.571Z,3.60
2023-05-11T04:52:20.121Z,3.17
2023-05-11T04:54:49.537Z,2.72
2023-05-11T04:57:17.360Z,2.30
2023-05-11T04:59:46.324Z,2.75
2023-05-11T05:02:13.819Z,3.10
2023-05-11T05:04:41.173Z,2.47
2023-05-11T05:07:09.313Z,2.53
2023-05-11T05:09:36.564Z,2.75
2023-05-11T05:12:04.276Z,2.58
2023-05-11T05:14:32.068Z,2.83
2023-05-11T05:17:01.466Z,3.17
2023-05-11T05:19:29.530Z,2.70
2023-05-11T05:21:57.078Z,3.40
2023-05-11T05:24:24.807Z,2.70
2023-05-11T05:26:52.500Z,2.67
2023-05-11T05:29:19.794Z,3.85
2023-05-11T05:31:48.902Z,2.30
2023-05-11T05:34:17.432Z,2.80
2023-05-11T05:36:45.212Z,2.60
2023-05-11T05:39:12.774Z,3.35
2023-05-11T05:41:42.607Z,3.25
2023-05-11T05:44:11.036Z,3.17
2023-05-11T05:46:39.771Z,3.28
2023-05-11T05:49:07.210Z,4.50
2023-05-11T05:51:35.593Z,2.65
2023-05-11T05:54:03.399Z,3.13
2023-05-11T05:56:32.246Z,3.20
2023-05-11T05:58:59.638Z,3.20
2023-05-11T06:01:28.417Z,3.03
2023-05-11T06:03:56.555Z,3.25
2023-05-11T06:06:26.042Z,3.90
2023-05-11T06:08:54.137Z,3.55
2023-05-11T06:11:21.884Z,4.38
2023-05-11T06:13:49.614Z,3.55
2023-05-11T06:16:17.299Z,3.17
2023-05-11T06:18:46.020Z,2.63
2023-05-11T06:21:13.692Z,3.03
2023-05-11T06:23:41.458Z,2.67
2023-05-11T06:26:09.253Z,2.97
2023-05-11T06:28:36.643Z,3.05
2023-05-11T06:31:09.840Z,2.30
2023-05-11T06:33:39.753Z,2.40
2023-05-11T06:36:12.195Z,2.70
2023-05-11T06:38:39.516Z,4.13
2023-05-11T06:41:11.289Z,2.95
2023-05-11T06:43:38.661Z,3.15
2023-05-11T06:46:17.626Z,2.67
2023-05-11T06:48:44.870Z,2.85
2023-05-11T06:51:12.818Z,2.38
2023-05-11T06:53:40.082Z,3.65
2023-05-11T06:56:08.233Z,2.40
2023-05-11T06:58:35.554Z,2.60
2023-05-11T07:01:05.778Z,2.85
2023-05-11T07:03:35.240Z,2.60
2023-05-11T07:06:03.220Z,3.15
2023-05-11T07:08:30.535Z,2.15
2023-05-11T07:10:58.344Z,3.70
2023-05-11T07:13:25.549Z,2.95
2023-05-11T07:15:54.651Z,2.25
2023-05-11T07:18:23.978Z,2.75
2023-05-11T07:20:51.359Z,3.08
2023-05-11T07:23:19.244Z,2.60
2023-05-11T07:25:46.465Z,2.20
2023-05-11T07:28:14.044Z,2.80
2023-05-11T07:30:41.333Z,3.50
2023-05-11T07:33:09.005Z,3.40
2023-05-11T07:35:36.646Z,3.67
2023-05-11T07:38:06.211Z,3.00
2023-05-11T07:40:35.683Z,2.88
2023-05-11T07:43:03.279Z,2.85
2023-05-11T07:45:30.593Z,4.65
2023-05-11T07:47:58.183Z,2.38
2023-05-11T07:50:25.947Z,2.45
2023-05-11T07:52:53.737Z,2.53
2023-05-11T07:55:24.908Z,2.50
2023-05-11T07:57:54.432Z,2.40
2023-05-11T08:00:22.024Z,3.22
2023-05-11T08:02:49.670Z,2.40
2023-05-11T08:05:17.674Z,2.13
2023-05-11T08:07:45.632Z,2.40
2023-05-11T08:10:13.633Z,2.13
2023-05-11T08:12:41.380Z,1.85
2023-05-11T08:15:09.632Z,2.60
2023-05-11T08:17:37.507Z,2.65
2023-05-11T08:20:06.771Z,2.42
2023-05-11T08:22:34.630Z,2.47
2023-05-11T08:25:01.920Z,2.22
2023-05-11T08:27:29.415Z,2.45
2023-05-11T08:29:56.586Z,2.58
2023-05-11T08:32:24.273Z,2.58
2023-05-11T08:34:51.820Z,2.72
2023-05-11T08:37:19.596Z,2.85
2023-05-11T08:39:48.035Z,2.78
2023-05-11T08:42:16.670Z,2.28
2023-05-11T08:44:44.807Z,2.65
2023-05-11T08:49:43.112Z,2.22
2023-05-11T08:52:13.056Z,1.85
2023-05-11T08:54:40.636Z,2.47
2023-05-11T08:57:08.724Z,1.75
2023-05-11T08:59:36.570Z,2.58
2023-05-11T09:02:05.037Z,2.47
2023-05-11T09:04:34.375Z,1.83
2023-05-11T09:07:02.265Z,1.90
2023-05-11T09:09:31.112Z,2.67
2023-05-11T09:11:59.810Z,1.98
2023-05-11T09:14:27.981Z,2.40
2023-05-11T09:16:55.956Z,2.63
2023-05-11T09:19:23.330Z,3.13
2023-05-11T09:21:53.542Z,2.25
2023-05-11T09:24:21.869Z,2.38
2023-05-11T09:26:49.434Z,2.72
2023-05-11T09:29:21.329Z,2.63
2023-05-11T09:31:48.971Z,3.67
2023-05-11T09:34:19.565Z,5.68
2023-05-11T09:36:52.566Z,3.85
2023-05-11T09:39:38.208Z,3.53
2023-05-11T09:42:19.391Z,2.55
2023-05-11T09:44:47.951Z,2.00
2023-05-11T09:47:20.065Z,2.10
2023-05-11T09:49:48.161Z,1.95
2023-05-11T09:52:21.222Z,2.10
2023-05-11T09:54:51.490Z,1.83
2023-05-11T09:57:53.162Z,2.30
2023-05-11T10:00:21.386Z,3.13
2023-05-11T10:03:01.734Z,2.22
2023-05-11T10:05:31.583Z,1.88
2023-05-11T10:08:04.565Z,2.28
2023-05-11T10:10:33.965Z,1.98
2023-05-11T10:13:03.520Z,2.53
2023-05-11T10:15:35.277Z,1.40
2023-05-11T10:20:30.400Z,1.98
2023-05-11T10:22:58.284Z,1.98
2023-05-11T10:25:29.299Z,2.17
2023-05-11T10:27:58.286Z,2.23
2023-05-11T10:30:26.410Z,2.15
2023-05-11T10:32:55.756Z,2.00
2023-05-11T10:35:24.016Z,1.85
2023-05-11T10:37:53.092Z,1.73
2023-05-11T10:40:21.130Z,2.53
2023-05-11T10:43:13.370Z,2.00
2023-05-11T10:45:52.877Z,2.05
2023-05-11T10:49:02.123Z,1.73
2023-05-11T10:51:50.798Z,2.03
2023-05-11T10:54:24.451Z,2.50
2023-05-11T10:57:22.874Z,1.40
2023-05-11T11:00:11.061Z,2.25
2023-05-11T11:02:38.642Z,1.70
2023-05-11T11:05:14.160Z,2.03
2023-05-11T11:08:03.991Z,1.70
2023-05-11T11:10:37.188Z,2.15
2023-05-11T11:13:09.793Z,2.33
2023-05-11T11:15:56.447Z,2.72
2023-05-11T11:18:24.418Z,1.92
2023-05-11T11:20:53.533Z,1.50
2023-05-11T11:23:39.403Z,2.03
2023-05-11T11:26:08.773Z,2.47
2023-05-11T11:28:54.449Z,2.65
2023-05-11T11:31:33.234Z,2.08
2023-05-11T11:34:25.164Z,1.67
2023-05-11T11:36:55.432Z,2.40
2023-05-11T11:39:25.601Z,1.75
2023-05-11T11:42:08.093Z,2.17
2023-05-11T11:44:36.307Z,1.20
2023-05-11T11:47:18.005Z,1.50
2023-05-11T11:49:46.885Z,2.08
2023-05-11T11:52:32.872Z,2.30
2023-05-11T11:55:01.734Z,1.77
2023-05-11T11:57:35.543Z,1.67
2023-05-11T12:00:07.186Z,2.00
2023-05-11T12:02:43.529Z,1.65
2023-05-11T12:05:14.198Z,2.10
2023-05-11T12:07:43.825Z,1.98
2023-05-11T12:10:14.421Z,2.13
2023-05-11T12:12:45.928Z,2.28
2023-05-11T12:15:31.296Z,2.45
2023-05-11T12:18:00.149Z,1.75
2023-05-11T12:20:27.534Z,2.05
2023-05-11T12:22:55.830Z,2.05
2023-05-11T12:25:23.619Z,2.40
2023-05-11T12:27:58.102Z,1.73
2023-05-11T12:30:28.914Z,2.33
2023-05-11T12:32:57.875Z,2.17
2023-05-11T12:35:30.108Z,1.58
2023-05-11T12:37:59.647Z,1.60
2023-05-11T12:40:27.578Z,1.67
2023-05-11T12:43:00.208Z,1.80
2023-05-11T12:45:29.195Z,2.42
2023-05-11T12:48:00.747Z,1.65
2023-05-11T12:50:28.290Z,1.85
2023-05-11T12:53:21.362Z,1.98
2023-05-11T12:56:01.035Z,1.85
2023-05-11T12:58:37.563Z,1.70
2023-05-11T13:01:09.957Z,1.95
2023-05-11T13:03:38.651Z,2.10
2023-05-11T13:06:06.116Z,1.60
2023-05-11T13:08:34.548Z,1.52
2023-05-11T13:11:25.443Z,3.30
2023-05-11T13:13:54.242Z,2.53
2023-05-11T13:16:34.642Z,2.13
2023-05-11T13:19:08.445Z,2.67
2023-05-11T13:21:36.222Z,1.83
2023-05-11T13:24:04.269Z,1.92
2023-05-11T13:26:32.105Z,2.30
2023-05-11T13:29:09.360Z,1.70
2023-05-11T13:31:49.826Z,1.67
2023-05-11T13:34:18.068Z,1.80
2023-05-11T13:36:45.583Z,1.73
2023-05-11T13:39:13.701Z,1.50
2023-05-11T13:41:41.293Z,1.63
2023-05-11T13:44:08.962Z,1.73
2023-05-11T13:46:38.657Z,2.08
2023-05-11T13:49:06.756Z,1.67
2023-05-11T13:51:34.211Z,2.58
2023-05-11T13:54:02.596Z,2.63
2023-05-11T13:56:30.142Z,2.70
2023-05-11T13:58:59.902Z,2.10
2023-05-11T14:01:27.697Z,1.90
2023-05-11T14:03:56.842Z,3.15
2023-05-11T14:06:25.569Z,3.08
2023-05-11T14:08:53.510Z,3.03
2023-05-11T14:11:21.814Z,3.28
2023-05-11T14:13:50.591Z,2.30
2023-05-11T14:16:19.625Z,2.30
2023-05-11T14:18:48.461Z,2.65
2023-05-11T14:21:17.445Z,1.90
2023-05-11T14:23:57.601Z,2.85
2023-05-11T14:26:29.744Z,1.70
2023-05-11T14:28:58.088Z,1.85
2023-05-11T14:31:26.284Z,1.75
2023-05-11T14:33:55.849Z,2.15
2023-05-11T14:36:23.644Z,3.10
2023-05-11T14:38:51.275Z,3.28
2023-05-11T14:41:19.114Z,1.77
2023-05-11T14:43:46.567Z,1.25
2023-05-11T14:46:14.201Z,1.75
2023-05-11T14:48:42.938Z,3.22
2023-05-11T14:51:10.638Z,3.60
2023-05-11T14:53:38.596Z,2.55
2023-05-11T14:56:06.747Z,1.67
2023-05-11T14:58:34.601Z,1.63
2023-05-11T15:01:02.390Z,2.10
2023-05-11T15:03:30.378Z,1.85
2023-05-11T15:05:58.061Z,1.30
2023-05-11T15:08:30.154Z,1.42
2023-05-11T15:10:58.412Z,1.45
2023-05-11T15:13:26.298Z,1.73
2023-05-11T15:15:53.690Z,4.63
2023-05-11T15:18:21.685Z,6.00
2023-05-11T15:20:49.057Z,2.28
2023-05-11T15:23:17.117Z,2.05
2023-05-11T15:25:45.224Z,1.98
2023-05-11T15:28:13.311Z,1.75
2023-05-11T15:30:41.706Z,3.92
2023-05-11T15:33:10.318Z,3.90
2023-05-11T15:35:38.614Z,2.00
2023-05-11T15:38:07.226Z,1.77
2023-05-11T15:40:34.436Z,2.40
2023-05-11T15:43:02.134Z,1.75
2023-05-11T15:45:30.341Z,2.70
2023-05-11T15:47:58.665Z,2.55
2023-05-11T15:50:26.253Z,1.58
2023-05-11T15:52:53.844Z,1.80
2023-05-11T15:55:21.282Z,1.33
2023-05-11T15:57:48.801Z,2.30
2023-05-11T16:00:16.853Z,2.17
2023-05-11T16:02:45.918Z,1.73
2023-05-11T16:05:13.411Z,1.60
2023-05-11T16:07:40.934Z,1.67
2023-05-11T16:10:08.868Z,2.30
2023-05-11T16:12:36.713Z,1.90
2023-05-11T16:15:04.337Z,1.88
2023-05-11T16:17:32.056Z,1.38
2023-05-11T16:20:00.386Z,1.60
2023-05-11T16:22:28.378Z,2.47
2023-05-11T16:24:55.608Z,1.95
2023-05-11T16:27:23.911Z,1.25
2023-05-11T16:29:52.418Z,2.20
2023-05-11T16:32:22.968Z,1.70
2023-05-11T16:34:50.157Z,1.13
2023-05-11T16:37:18.069Z,1.48
2023-05-11T16:39:45.784Z,1.77
2023-05-11T16:42:13.975Z,1.30
2023-05-11T16:44:41.803Z,1.70
2023-05-11T16:47:09.815Z,1.73
2023-05-11T16:49:37.019Z,1.73
2023-05-11T16:52:04.770Z,1.98
2023-05-11T16:54:31.971Z,2.45
2023-05-11T16:56:59.483Z,1.50
2023-05-11T16:59:26.836Z,2.10
2023-05-11T17:01:54.438Z,1.63
2023-05-11T17:04:21.998Z,1.98
2023-05-11T17:06:49.562Z,1.90
2023-05-11T17:09:16.743Z,1.52
2023-05-11T17:11:44.373Z,1.65
2023-05-11T17:14:11.828Z,1.55
2023-05-11T17:16:39.633Z,1.52
2023-05-11T17:19:07.804Z,1.83
2023-05-11T17:21:35.938Z,2.10
2023-05-11T17:24:03.699Z,1.77
2023-05-11T17:26:43.472Z,2.00
2023-05-11T17:29:16.090Z,1.80
2023-05-11T17:31:43.783Z,2.55
2023-05-11T17:34:11.446Z,1.75
2023-05-11T17:36:39.205Z,2.00
2023-05-11T17:39:06.546Z,2.15
2023-05-11T17:41:34.110Z,2.10
2023-05-11T17:44:01.634Z,2.00
2023-05-11T17:46:29.990Z,2.35
2023-05-11T17:48:57.586Z,1.98
2023-05-11T17:51:25.117Z,2.30
2023-05-11T17:53:52.506Z,2.55
2023-05-11T17:56:20.167Z,2.65
2023-05-11T17:58:48.626Z,2.63
2023-05-11T18:01:19.019Z,3.13
2023-05-11T18:03:46.886Z,2.42
2023-05-11T18:06:14.869Z,3.20
2023-05-11T18:08:42.631Z,2.40
2023-05-11T18:11:11.184Z,3.30
2023-05-11T18:13:38.536Z,3.10
2023-05-11T18:16:09.000Z,2.90
2023-05-11T18:18:36.794Z,4.43
2023-05-11T18:21:06.026Z,3.33
2023-05-11T18:23:33.589Z,3.13
2023-05-11T18:26:01.376Z,3.03
2023-05-11T18:28:28.625Z,3.88
2023-05-11T18:30:57.497Z,5.05
2023-05-11T18:33:24.756Z,4.28
2023-05-11T18:35:52.463Z,3.38
2023-05-11T18:38:19.910Z,3.13
2023-05-11T18:40:47.810Z,3.30
2023-05-11T18:43:15.026Z,3.40
2023-05-11T18:45:44.305Z,3.60
2023-05-11T18:48:11.681Z,3.38
2023-05-11T18:50:40.406Z,3.38
2023-05-11T18:53:08.519Z,3.40
2023-05-11T18:55:49.112Z,3.95
2023-05-11T18:58:20.605Z,3.17
2023-05-11T19:00:52.375Z,4.15
2023-05-11T19:03:20.781Z,3.15
2023-05-11T19:05:50.612Z,3.83
2023-05-11T19:08:18.604Z,2.83
2023-05-11T19:10:48.097Z,3.25
2023-05-11T19:13:15.538Z,3.47
2023-05-11T19:15:44.663Z,3.95
2023-05-11T19:18:14.468Z,4.15
2023-05-11T19:20:42.086Z,3.38
2023-05-11T19:23:09.440Z,3.78
2023-05-11T19:25:37.256Z,2.95
2023-05-11T19:28:04.869Z,4.00
2023-05-11T19:30:32.367Z,3.97
2023-05-11T19:32:59.873Z,6.93
2023-05-11T19:35:28.311Z,5.22
2023-05-11T19:37:55.796Z,4.95
2023-05-11T19:42:55.500Z,4.70
2023-05-11T19:45:23.146Z,3.83
2023-05-11T19:47:54.082Z,3.97
2023-05-11T19:50:25.175Z,2.88
2023-05-11T19:52:52.948Z,4.20
2023-05-11T19:55:22.484Z,3.92
2023-05-11T19:57:51.674Z,4.05
2023-05-11T20:00:20.515Z,4.40
2023-05-11T20:02:48.774Z,4.47
2023-05-11T20:05:16.445Z,3.83
2023-05-11T20:07:44.002Z,3.70
2023-05-11T20:10:12.484Z,3.53
2023-05-11T20:12:40.155Z,3.75
2023-05-11T20:15:08.903Z,4.13
2023-05-11T20:17:37.556Z,3.63
2023-05-11T20:20:05.747Z,3.70
2023-05-11T20:22:33.293Z,4.50
2023-05-11T20:25:00.981Z,3.67
2023-05-11T20:27:28.500Z,4.03
2023-05-11T20:29:56.629Z,3.97
2023-05-11T20:32:24.283Z,4.28
2023-05-11T20:34:52.364Z,4.15
2023-05-11T20:37:19.946Z,3.72
2023-05-11T20:39:47.602Z,4.75
2023-05-11T20:42:15.053Z,4.00
2023-05-11T20:44:42.864Z,4.70
2023-05-11T20:47:10.189Z,5.28
2023-05-11T20:49:39.579Z,4.57
2023-05-11T20:52:08.148Z,4.78
2023-05-11T20:54:36.032Z,3.88
2023-05-11T20:57:06.463Z,4.35
2023-05-11T21:02:04.724Z,4.53
2023-05-11T21:04:36.128Z,4.10
2023-05-11T21:07:03.538Z,5.25
2023-05-11T21:09:31.045Z,4.95
2023-05-11T21:11:59.519Z,4.60
2023-05-11T21:14:27.137Z,4.50
2023-05-11T21:16:54.468Z,3.85
2023-05-11T21:19:22.094Z,4.15
2023-05-11T21:21:49.754Z,4.15
2023-05-11T21:24:17.388Z,4.80
2023-05-11T21:26:47.977Z,4.00
2023-05-11T21:29:15.865Z,4.10
2023-05-11T21:31:43.364Z,4.13
2023-05-11T21:34:11.008Z,4.13
2023-05-11T21:36:40.326Z,3.58
2023-05-11T21:39:07.898Z,5.20
2023-05-11T21:41:35.327Z,3.80
2023-05-11T21:44:02.864Z,4.25
2023-05-11T21:46:30.245Z,3.70
2023-05-11T21:48:57.775Z,4.32
2023-05-11T21:51:24.973Z,3.63
2023-05-11T21:53:53.066Z,4.50
2023-05-11T21:56:20.342Z,3.75
2023-05-11T21:58:48.683Z,3.53
2023-05-11T22:01:16.057Z,3.45
2023-05-11T22:03:43.754Z,3.97
2023-05-11T22:06:11.030Z,3.85
2023-05-11T22:08:38.581Z,3.50
2023-05-11T22:11:06.659Z,3.67
2023-05-11T22:13:34.462Z,3.58
2023-05-11T22:16:02.216Z,3.88
2023-05-11T22:18:29.856Z,3.75
2023-05-11T22:20:57.052Z,4.13
2023-05-11T22:23:24.765Z,3.38
2023-05-11T22:25:52.354Z,3.47
2023-05-11T22:28:20.210Z,4.30
2023-05-11T22:30:47.679Z,3.10
2023-05-11T22:33:15.545Z,4.82
2023-05-11T22:35:42.860Z,4.18
2023-05-11T22:38:10.582Z,3.42
2023-05-11T22:40:37.801Z,3.65
2023-05-11T22:43:05.656Z,3.10
2023-05-11T22:45:33.188Z,3.25
2023-05-11T22:48:01.772Z,3.97
2023-05-11T22:50:30.128Z,3.65
2023-05-11T22:52:57.949Z,4.20
2023-05-11T22:55:25.298Z,3.75
2023-05-11T22:57:52.851Z,3.40
2023-05-11T23:00:20.994Z,3.30
2023-05-11T23:02:48.880Z,3.65
2023-05-11T23:05:16.199Z,3.80
2023-05-11T23:07:43.985Z,3.60
2023-05-11T23:10:11.357Z,4.40
2023-05-11T23:12:39.151Z,3.85
2023-05-11T23:15:06.988Z,3.75
2023-05-11T23:17:34.583Z,4.30
2023-05-11T23:20:02.017Z,4.05
2023-05-11T23:22:29.817Z,3.63
2023-05-11T23:24:57.193Z,3.80
2023-05-11T23:27:24.745Z,3.50
2023-05-11T23:29:52.057Z,3.60
2023-05-11T23:32:19.504Z,4.13
2023-05-11T23:34:46.942Z,4.13
2023-05-11T23:37:14.705Z,3.17
2023-05-11T23:39:41.884Z,4.20
2023-05-11T23:42:09.383Z,3.42
2023-05-11T23:44:36.614Z,3.55
2023-05-11T23:47:04.384Z,3.70
2023-05-11T23:49:31.829Z,3.55
2023-05-11T23:51:59.276Z,4.40
2023-05-11T23:54:26.633Z,4.07
2023-05-11T23:56:54.260Z,4.70
2023-05-11T23:59:21.479Z,4.63
